sensor_id;sensor_type;location;lat;lon;timestamp;P1;durP1;ratioP1;P2;durP2;ratioP2
19883;SDS011;10104;50.732;10.174;2024-02-21T00:02:20;15.37;;;4.90;;
19883;SDS011;10104;50.732;10.174;2024-02-21T00:05:00;12.97;;;4.40;;
19883;SDS011;10104;50.732;10.174;2024-02-21T00:07:41;11.70;;;4.60;;
19883;SDS011;10104;50.732;10.174;2024-02-21T00:10:21;14.60;;;4.37;;
19883;SDS011;10104;50.732;10.174;2024-02-21T00:13:02;13.70;;;4.13;;
19883;SDS011;10104;50.732;10.174;2024-02-21T00:15:42;17.37;;;4.40;;
19883;SDS011;10104;50.732;10.174;2024-02-21T00:18:22;11.87;;;4.33;;
19883;SDS011;10104;50.732;10.174;2024-02-21T00:21:08;13.00;;;4.47;;
19883;SDS011;10104;50.732;10.174;2024-02-21T00:23:48;17.13;;;4.83;;
19883;SDS011;10104;50.732;10.174;2024-02-21T00:26:30;10.43;;;4.60;;
19883;SDS011;10104;50.732;10.174;2024-02-21T00:29:11;13.07;;;4.43;;
19883;SDS011;10104;50.732;10.174;2024-02-21T00:31:51;12.97;;;4.93;;
19883;SDS011;10104;50.732;10.174;2024-02-21T00:34:31;12.73;;;4.40;;
19883;SDS011;10104;50.732;10.174;2024-02-21T00:37:11;7.43;;;4.00;;
19883;SDS011;10104;50.732;10.174;2024-02-21T00:39:51;12.10;;;4.00;;
19883;SDS011;10104;50.732;10.174;2024-02-21T00:42:31;12.57;;;4.60;;
19883;SDS011;10104;50.732;10.174;2024-02-21T00:45:11;9.27;;;3.97;;
19883;SDS011;10104;50.732;10.174;2024-02-21T00:47:51;13.67;;;5.07;;
19883;SDS011;10104;50.732;10.174;2024-02-21T00:50:32;19.23;;;4.73;;
19883;SDS011;10104;50.732;10.174;2024-02-21T00:53:12;11.53;;;3.90;;
19883;SDS011;10104;50.732;10.174;2024-02-21T00:55:52;12.40;;;4.63;;
19883;SDS011;10104;50.732;10.174;2024-02-21T00:58:33;17.40;;;5.23;;
19883;SDS011;10104;50.732;10.174;2024-02-21T01:01:20;17.63;;;5.13;;
19883;SDS011;10104;50.732;10.174;2024-02-21T01:04:02;11.67;;;4.37;;
19883;SDS011;10104;50.732;10.174;2024-02-21T01:06:42;14.83;;;4.47;;
19883;SDS011;10104;50.732;10.174;2024-02-21T01:09:24;9.90;;;4.30;;
19883;SDS011;10104;50.732;10.174;2024-02-21T01:12:04;10.87;;;5.20;;
19883;SDS011;10104;50.732;10.174;2024-02-21T01:14:44;11.10;;;4.63;;
19883;SDS011;10104;50.732;10.174;2024-02-21T01:17:26;13.10;;;5.13;;
19883;SDS011;10104;50.732;10.174;2024-02-21T01:20:06;10.60;;;5.43;;
19883;SDS011;10104;50.732;10.174;2024-02-21T01:22:46;11.30;;;4.70;;
19883;SDS011;10104;50.732;10.174;2024-02-21T01:25:26;15.77;;;4.90;;
19883;SDS011;10104;50.732;10.174;2024-02-21T01:28:07;14.37;;;4.40;;
19883;SDS011;10104;50.732;10.174;2024-02-21T01:30:47;11.70;;;4.80;;
19883;SDS011;10104;50.732;10.174;2024-02-21T01:33:27;16.97;;;4.80;;
19883;SDS011;10104;50.732;10.174;2024-02-21T01:36:07;15.20;;;4.87;;
19883;SDS011;10104;50.732;10.174;2024-02-21T01:38:47;12.70;;;4.83;;
19883;SDS011;10104;50.732;10.174;2024-02-21T01:41:29;14.57;;;4.87;;
19883;SDS011;10104;50.732;10.174;2024-02-21T01:44:10;18.30;;;5.07;;
19883;SDS011;10104;50.732;10.174;2024-02-21T01:46:50;16.77;;;5.63;;
19883;SDS011;10104;50.732;10.174;2024-02-21T01:49:31;13.50;;;4.67;;
19883;SDS011;10104;50.732;10.174;2024-02-21T01:52:12;13.43;;;4.83;;
19883;SDS011;10104;50.732;10.174;2024-02-21T01:54:54;9.03;;;4.73;;
19883;SDS011;10104;50.732;10.174;2024-02-21T01:57:34;15.63;;;5.30;;
19883;SDS011;10104;50.732;10.174;2024-02-21T02:00:15;13.20;;;4.93;;
19883;SDS011;10104;50.732;10.174;2024-02-21T02:02:56;13.20;;;4.80;;
19883;SDS011;10104;50.732;10.174;2024-02-21T02:05:36;10.20;;;5.00;;
19883;SDS011;10104;50.732;10.174;2024-02-21T02:08:17;15.23;;;4.63;;
19883;SDS011;10104;50.732;10.174;2024-02-21T02:10:59;12.37;;;5.53;;
19883;SDS011;10104;50.732;10.174;2024-02-21T02:13:40;14.70;;;5.23;;
19883;SDS011;10104;50.732;10.174;2024-02-21T02:16:19;11.03;;;4.57;;
19883;SDS011;10104;50.732;10.174;2024-02-21T02:19:00;14.47;;;4.77;;
19883;SDS011;10104;50.732;10.174;2024-02-21T02:21:41;18.03;;;5.63;;
19883;SDS011;10104;50.732;10.174;2024-02-21T02:24:25;11.30;;;5.03;;
19883;SDS011;10104;50.732;10.174;2024-02-21T02:27:05;10.40;;;4.77;;
19883;SDS011;10104;50.732;10.174;2024-02-21T02:29:46;9.50;;;4.80;;
19883;SDS011;10104;50.732;10.174;2024-02-21T02:32:26;14.53;;;5.47;;
19883;SDS011;10104;50.732;10.174;2024-02-21T02:35:06;10.40;;;5.13;;
19883;SDS011;10104;50.732;10.174;2024-02-21T02:37:50;13.63;;;5.50;;
19883;SDS011;10104;50.732;10.174;2024-02-21T02:40:31;11.23;;;5.43;;
19883;SDS011;10104;50.732;10.174;2024-02-21T02:43:12;14.73;;;5.70;;
19883;SDS011;10104;50.732;10.174;2024-02-21T02:45:53;12.27;;;5.40;;
19883;SDS011;10104;50.732;10.174;2024-02-21T02:48:33;12.67;;;5.70;;
19883;SDS011;10104;50.732;10.174;2024-02-21T02:51:13;11.00;;;5.17;;
19883;SDS011;10104;50.732;10.174;2024-02-21T02:53:53;14.37;;;5.73;;
19883;SDS011;10104;50.732;10.174;2024-02-21T02:56:33;20.47;;;6.10;;
19883;SDS011;10104;50.732;10.174;2024-02-21T02:59:13;14.17;;;5.90;;
19883;SDS011;10104;50.732;10.174;2024-02-21T03:01:53;17.27;;;5.77;;
19883;SDS011;10104;50.732;10.174;2024-02-21T03:04:34;16.40;;;6.57;;
19883;SDS011;10104;50.732;10.174;2024-02-21T03:07:14;17.90;;;6.43;;
19883;SDS011;10104;50.732;10.174;2024-02-21T03:09:55;15.13;;;5.70;;
19883;SDS011;10104;50.732;10.174;2024-02-21T03:12:35;16.37;;;5.47;;
19883;SDS011;10104;50.732;10.174;2024-02-21T03:15:15;15.00;;;6.23;;
19883;SDS011;10104;50.732;10.174;2024-02-21T03:17:56;18.03;;;6.10;;
19883;SDS011;10104;50.732;10.174;2024-02-21T03:20:35;12.07;;;5.17;;
19883;SDS011;10104;50.732;10.174;2024-02-21T03:23:16;13.47;;;5.97;;
19883;SDS011;10104;50.732;10.174;2024-02-21T03:25:56;18.73;;;5.57;;
19883;SDS011;10104;50.732;10.174;2024-02-21T03:28:36;14.50;;;5.53;;
19883;SDS011;10104;50.732;10.174;2024-02-21T03:31:16;11.07;;;5.20;;
19883;SDS011;10104;50.732;10.174;2024-02-21T03:33:56;13.90;;;5.57;;
19883;SDS011;10104;50.732;10.174;2024-02-21T03:36:36;13.30;;;5.50;;
19883;SDS011;10104;50.732;10.174;2024-02-21T03:39:17;12.43;;;5.70;;
19883;SDS011;10104;50.732;10.174;2024-02-21T03:41:57;12.47;;;5.27;;
19883;SDS011;10104;50.732;10.174;2024-02-21T03:44:38;11.60;;;5.40;;
19883;SDS011;10104;50.732;10.174;2024-02-21T03:47:18;10.87;;;5.03;;
19883;SDS011;10104;50.732;10.174;2024-02-21T03:49:58;12.80;;;5.40;;
19883;SDS011;10104;50.732;10.174;2024-02-21T03:52:40;13.07;;;5.50;;
19883;SDS011;10104;50.732;10.174;2024-02-21T03:55:20;11.60;;;5.17;;
19883;SDS011;10104;50.732;10.174;2024-02-21T03:58:02;12.00;;;5.00;;
19883;SDS011;10104;50.732;10.174;2024-02-21T04:00:42;8.43;;;4.50;;
19883;SDS011;10104;50.732;10.174;2024-02-21T04:03:22;16.33;;;5.40;;
19883;SDS011;10104;50.732;10.174;2024-02-21T04:06:02;12.03;;;5.23;;
19883;SDS011;10104;50.732;10.174;2024-02-21T04:08:43;18.57;;;6.00;;
19883;SDS011;10104;50.732;10.174;2024-02-21T04:11:24;11.23;;;5.07;;
19883;SDS011;10104;50.732;10.174;2024-02-21T04:14:05;15.57;;;6.17;;
19883;SDS011;10104;50.732;10.174;2024-02-21T04:16:45;12.53;;;6.20;;
19883;SDS011;10104;50.732;10.174;2024-02-21T04:19:25;13.03;;;5.17;;
19883;SDS011;10104;50.732;10.174;2024-02-21T04:22:05;13.00;;;5.20;;
19883;SDS011;10104;50.732;10.174;2024-02-21T04:24:45;11.17;;;5.03;;
19883;SDS011;10104;50.732;10.174;2024-02-21T04:27:26;11.63;;;5.00;;
19883;SDS011;10104;50.732;10.174;2024-02-21T04:30:07;12.90;;;5.90;;
19883;SDS011;10104;50.732;10.174;2024-02-21T04:32:47;13.40;;;5.73;;
19883;SDS011;10104;50.732;10.174;2024-02-21T04:35:27;17.10;;;5.77;;
19883;SDS011;10104;50.732;10.174;2024-02-21T04:38:07;13.80;;;5.73;;
19883;SDS011;10104;50.732;10.174;2024-02-21T04:40:48;11.90;;;5.20;;
19883;SDS011;10104;50.732;10.174;2024-02-21T04:43:28;15.60;;;6.37;;
19883;SDS011;10104;50.732;10.174;2024-02-21T04:46:08;14.57;;;5.63;;
19883;SDS011;10104;50.732;10.174;2024-02-21T04:48:49;15.53;;;6.10;;
19883;SDS011;10104;50.732;10.174;2024-02-21T04:51:29;15.70;;;6.70;;
19883;SDS011;10104;50.732;10.174;2024-02-21T04:54:09;17.97;;;7.10;;
19883;SDS011;10104;50.732;10.174;2024-02-21T04:56:50;14.70;;;6.70;;
19883;SDS011;10104;50.732;10.174;2024-02-21T04:59:32;11.30;;;6.47;;
19883;SDS011;10104;50.732;10.174;2024-02-21T05:02:13;14.10;;;6.73;;
19883;SDS011;10104;50.732;10.174;2024-02-21T05:04:54;14.23;;;6.33;;
19883;SDS011;10104;50.732;10.174;2024-02-21T05:07:34;11.60;;;6.90;;
19883;SDS011;10104;50.732;10.174;2024-02-21T05:10:15;14.30;;;6.30;;
19883;SDS011;10104;50.732;10.174;2024-02-21T05:12:55;11.67;;;6.47;;
19883;SDS011;10104;50.732;10.174;2024-02-21T05:15:35;15.87;;;6.23;;
19883;SDS011;10104;50.732;10.174;2024-02-21T05:18:15;15.83;;;7.17;;
19883;SDS011;10104;50.732;10.174;2024-02-21T05:20:56;11.13;;;6.33;;
19883;SDS011;10104;50.732;10.174;2024-02-21T05:23:36;14.40;;;6.77;;
19883;SDS011;10104;50.732;10.174;2024-02-21T05:26:20;16.63;;;7.40;;
19883;SDS011;10104;50.732;10.174;2024-02-21T05:29:02;12.50;;;6.70;;
19883;SDS011;10104;50.732;10.174;2024-02-21T05:31:54;13.13;;;6.17;;
19883;SDS011;10104;50.732;10.174;2024-02-21T05:34:37;13.80;;;6.73;;
19883;SDS011;10104;50.732;10.174;2024-02-21T05:37:18;20.07;;;8.10;;
19883;SDS011;10104;50.732;10.174;2024-02-21T05:39:58;14.17;;;7.20;;
19883;SDS011;10104;50.732;10.174;2024-02-21T05:42:38;14.27;;;7.50;;
19883;SDS011;10104;50.732;10.174;2024-02-21T05:45:18;16.30;;;7.33;;
19883;SDS011;10104;50.732;10.174;2024-02-21T05:47:58;13.73;;;7.83;;
19883;SDS011;10104;50.732;10.174;2024-02-21T05:50:39;17.00;;;7.87;;
19883;SDS011;10104;50.732;10.174;2024-02-21T05:53:19;19.13;;;8.33;;
19883;SDS011;10104;50.732;10.174;2024-02-21T05:56:00;14.10;;;7.90;;
19883;SDS011;10104;50.732;10.174;2024-02-21T05:58:41;17.17;;;8.13;;
19883;SDS011;10104;50.732;10.174;2024-02-21T06:01:21;20.90;;;9.03;;
19883;SDS011;10104;50.732;10.174;2024-02-21T06:04:02;15.60;;;8.03;;
19883;SDS011;10104;50.732;10.174;2024-02-21T06:06:42;20.03;;;8.33;;
19883;SDS011;10104;50.732;10.174;2024-02-21T06:09:22;18.03;;;7.93;;
19883;SDS011;10104;50.732;10.174;2024-02-21T06:12:03;15.10;;;8.00;;
19883;SDS011;10104;50.732;10.174;2024-02-21T06:14:43;21.63;;;7.57;;
19883;SDS011;10104;50.732;10.174;2024-02-21T06:17:23;17.37;;;7.87;;
19883;SDS011;10104;50.732;10.174;2024-02-21T06:20:04;15.77;;;7.80;;
19883;SDS011;10104;50.732;10.174;2024-02-21T06:22:44;17.43;;;7.50;;
19883;SDS011;10104;50.732;10.174;2024-02-21T06:25:25;14.33;;;7.43;;
19883;SDS011;10104;50.732;10.174;2024-02-21T06:28:05;16.60;;;7.73;;
19883;SDS011;10104;50.732;10.174;2024-02-21T06:30:45;16.17;;;7.47;;
19883;SDS011;10104;50.732;10.174;2024-02-21T06:33:25;15.30;;;6.53;;
19883;SDS011;10104;50.732;10.174;2024-02-21T06:36:06;14.77;;;6.07;;
19883;SDS011;10104;50.732;10.174;2024-02-21T06:38:46;11.97;;;6.47;;
19883;SDS011;10104;50.732;10.174;2024-02-21T06:41:26;11.40;;;6.73;;
19883;SDS011;10104;50.732;10.174;2024-02-21T06:44:07;15.30;;;7.43;;
19883;SDS011;10104;50.732;10.174;2024-02-21T06:46:46;12.07;;;6.53;;
19883;SDS011;10104;50.732;10.174;2024-02-21T06:49:27;15.47;;;7.63;;
19883;SDS011;10104;50.732;10.174;2024-02-21T06:52:07;14.87;;;6.33;;
19883;SDS011;10104;50.732;10.174;2024-02-21T06:54:47;20.30;;;8.00;;
19883;SDS011;10104;50.732;10.174;2024-02-21T06:57:28;18.57;;;7.77;;
19883;SDS011;10104;50.732;10.174;2024-02-21T07:00:09;13.60;;;7.10;;
19883;SDS011;10104;50.732;10.174;2024-02-21T07:02:50;15.13;;;7.37;;
19883;SDS011;10104;50.732;10.174;2024-02-21T07:05:30;16.17;;;8.10;;
19883;SDS011;10104;50.732;10.174;2024-02-21T07:08:10;17.80;;;7.57;;
19883;SDS011;10104;50.732;10.174;2024-02-21T07:10:50;17.10;;;7.70;;
19883;SDS011;10104;50.732;10.174;2024-02-21T07:13:31;16.57;;;7.70;;
19883;SDS011;10104;50.732;10.174;2024-02-21T07:16:12;13.73;;;7.13;;
19883;SDS011;10104;50.732;10.174;2024-02-21T07:18:52;17.43;;;7.97;;
19883;SDS011;10104;50.732;10.174;2024-02-21T07:21:32;11.80;;;6.87;;
19883;SDS011;10104;50.732;10.174;2024-02-21T07:24:13;19.57;;;7.97;;
19883;SDS011;10104;50.732;10.174;2024-02-21T07:26:53;17.77;;;7.67;;
19883;SDS011;10104;50.732;10.174;2024-02-21T07:29:33;13.63;;;7.67;;
19883;SDS011;10104;50.732;10.174;2024-02-21T07:32:13;16.43;;;7.30;;
19883;SDS011;10104;50.732;10.174;2024-02-21T07:34:53;12.87;;;7.10;;
19883;SDS011;10104;50.732;10.174;2024-02-21T07:37:34;20.70;;;8.67;;
19883;SDS011;10104;50.732;10.174;2024-02-21T07:40:14;15.47;;;7.50;;
19883;SDS011;10104;50.732;10.174;2024-02-21T07:42:56;13.40;;;7.17;;
19883;SDS011;10104;50.732;10.174;2024-02-21T07:45:36;20.97;;;7.67;;
19883;SDS011;10104;50.732;10.174;2024-02-21T07:48:18;22.80;;;7.80;;
19883;SDS011;10104;50.732;10.174;2024-02-21T07:50:58;21.97;;;8.40;;
19883;SDS011;10104;50.732;10.174;2024-02-21T07:53:38;16.13;;;7.37;;
19883;SDS011;10104;50.732;10.174;2024-02-21T07:56:21;17.93;;;7.70;;
19883;SDS011;10104;50.732;10.174;2024-02-21T07:59:01;18.50;;;7.87;;
19883;SDS011;10104;50.732;10.174;2024-02-21T08:01:42;14.23;;;7.20;;
19883;SDS011;10104;50.732;10.174;2024-02-21T08:04:24;15.47;;;7.13;;
19883;SDS011;10104;50.732;10.174;2024-02-21T08:07:05;15.23;;;6.90;;
19883;SDS011;10104;50.732;10.174;2024-02-21T08:09:45;17.13;;;7.60;;
19883;SDS011;10104;50.732;10.174;2024-02-21T08:12:25;13.47;;;7.10;;
19883;SDS011;10104;50.732;10.174;2024-02-21T08:15:07;15.90;;;7.80;;
19883;SDS011;10104;50.732;10.174;2024-02-21T08:17:50;13.83;;;6.93;;
19883;SDS011;10104;50.732;10.174;2024-02-21T08:20:30;16.40;;;8.37;;
19883;SDS011;10104;50.732;10.174;2024-02-21T08:23:10;16.57;;;8.13;;
19883;SDS011;10104;50.732;10.174;2024-02-21T08:25:51;17.47;;;8.17;;
19883;SDS011;10104;50.732;10.174;2024-02-21T08:28:31;13.37;;;8.03;;
19883;SDS011;10104;50.732;10.174;2024-02-21T08:31:18;21.67;;;8.50;;
19883;SDS011;10104;50.732;10.174;2024-02-21T08:33:58;22.90;;;8.53;;
19883;SDS011;10104;50.732;10.174;2024-02-21T08:36:44;18.73;;;9.30;;
19883;SDS011;10104;50.732;10.174;2024-02-21T08:39:24;17.77;;;9.20;;
19883;SDS011;10104;50.732;10.174;2024-02-21T08:42:05;18.63;;;9.53;;
19883;SDS011;10104;50.732;10.174;2024-02-21T08:44:45;20.03;;;8.83;;
19883;SDS011;10104;50.732;10.174;2024-02-21T08:47:25;20.97;;;8.50;;
19883;SDS011;10104;50.732;10.174;2024-02-21T08:50:05;20.23;;;8.17;;
19883;SDS011;10104;50.732;10.174;2024-02-21T08:52:58;16.13;;;8.83;;
19883;SDS011;10104;50.732;10.174;2024-02-21T08:55:38;11.80;;;7.33;;
19883;SDS011;10104;50.732;10.174;2024-02-21T08:58:18;16.70;;;7.67;;
19883;SDS011;10104;50.732;10.174;2024-02-21T09:01:01;16.80;;;7.27;;
19883;SDS011;10104;50.732;10.174;2024-02-21T09:03:43;12.37;;;5.50;;
19883;SDS011;10104;50.732;10.174;2024-02-21T09:06:23;14.73;;;5.83;;
19883;SDS011;10104;50.732;10.174;2024-02-21T09:09:03;10.50;;;5.40;;
19883;SDS011;10104;50.732;10.174;2024-02-21T09:11:44;11.57;;;5.60;;
19883;SDS011;10104;50.732;10.174;2024-02-21T09:14:24;15.23;;;6.00;;
19883;SDS011;10104;50.732;10.174;2024-02-21T09:17:04;11.83;;;5.37;;
19883;SDS011;10104;50.732;10.174;2024-02-21T09:19:44;14.73;;;5.80;;
19883;SDS011;10104;50.732;10.174;2024-02-21T09:22:25;15.67;;;6.10;;
19883;SDS011;10104;50.732;10.174;2024-02-21T09:25:05;15.97;;;6.60;;
19883;SDS011;10104;50.732;10.174;2024-02-21T09:27:46;12.57;;;6.27;;
19883;SDS011;10104;50.732;10.174;2024-02-21T09:30:26;14.60;;;5.20;;
19883;SDS011;10104;50.732;10.174;2024-02-21T09:33:06;12.30;;;5.50;;
19883;SDS011;10104;50.732;10.174;2024-02-21T09:35:47;9.17;;;4.47;;
19883;SDS011;10104;50.732;10.174;2024-02-21T09:38:28;8.73;;;4.17;;
19883;SDS011;10104;50.732;10.174;2024-02-21T09:41:15;11.40;;;4.13;;
19883;SDS011;10104;50.732;10.174;2024-02-21T09:44:05;10.63;;;5.20;;
19883;SDS011;10104;50.732;10.174;2024-02-21T09:46:52;11.07;;;4.70;;
19883;SDS011;10104;50.732;10.174;2024-02-21T09:49:37;6.90;;;4.63;;
19883;SDS011;10104;50.732;10.174;2024-02-21T09:52:21;10.00;;;4.87;;
19883;SDS011;10104;50.732;10.174;2024-02-21T09:55:03;10.83;;;4.93;;
19883;SDS011;10104;50.732;10.174;2024-02-21T09:57:45;10.87;;;5.00;;
19883;SDS011;10104;50.732;10.174;2024-02-21T10:00:25;8.40;;;4.83;;
19883;SDS011;10104;50.732;10.174;2024-02-21T10:03:05;12.03;;;5.00;;
19883;SDS011;10104;50.732;10.174;2024-02-21T10:05:48;10.43;;;5.20;;
19883;SDS011;10104;50.732;10.174;2024-02-21T10:08:32;9.23;;;5.20;;
19883;SDS011;10104;50.732;10.174;2024-02-21T10:11:21;11.07;;;5.53;;
19883;SDS011;10104;50.732;10.174;2024-02-21T10:14:04;7.00;;;4.70;;
19883;SDS011;10104;50.732;10.174;2024-02-21T10:16:48;9.43;;;5.17;;
19883;SDS011;10104;50.732;10.174;2024-02-21T10:19:36;11.93;;;4.87;;
19883;SDS011;10104;50.732;10.174;2024-02-21T10:22:17;12.43;;;5.53;;
19883;SDS011;10104;50.732;10.174;2024-02-21T10:25:06;13.30;;;5.37;;
19883;SDS011;10104;50.732;10.174;2024-02-21T10:27:47;10.20;;;5.17;;
19883;SDS011;10104;50.732;10.174;2024-02-21T10:30:28;11.37;;;5.27;;
19883;SDS011;10104;50.732;10.174;2024-02-21T10:33:08;14.53;;;5.80;;
19883;SDS011;10104;50.732;10.174;2024-02-21T10:35:48;7.00;;;4.80;;
19883;SDS011;10104;50.732;10.174;2024-02-21T10:38:30;8.13;;;4.93;;
19883;SDS011;10104;50.732;10.174;2024-02-21T10:41:10;12.33;;;4.83;;
19883;SDS011;10104;50.732;10.174;2024-02-21T10:43:54;13.67;;;5.33;;
19883;SDS011;10104;50.732;10.174;2024-02-21T10:46:36;10.83;;;5.13;;
19883;SDS011;10104;50.732;10.174;2024-02-21T10:49:22;10.53;;;5.13;;
19883;SDS011;10104;50.732;10.174;2024-02-21T10:52:19;9.43;;;4.43;;
19883;SDS011;10104;50.732;10.174;2024-02-21T10:55:26;8.80;;;4.80;;
19883;SDS011;10104;50.732;10.174;2024-02-21T10:58:12;10.70;;;4.93;;
19883;SDS011;10104;50.732;10.174;2024-02-21T11:00:53;9.53;;;4.63;;
19883;SDS011;10104;50.732;10.174;2024-02-21T11:03:34;12.20;;;5.03;;
19883;SDS011;10104;50.732;10.174;2024-02-21T11:06:15;7.70;;;4.10;;
19883;SDS011;10104;50.732;10.174;2024-02-21T11:09:07;11.63;;;4.40;;
19883;SDS011;10104;50.732;10.174;2024-02-21T11:11:50;11.63;;;4.53;;
19883;SDS011;10104;50.732;10.174;2024-02-21T11:14:31;8.80;;;3.80;;
19883;SDS011;10104;50.732;10.174;2024-02-21T11:17:19;10.43;;;3.70;;
19883;SDS011;10104;50.732;10.174;2024-02-21T11:20:11;5.33;;;3.10;;
19883;SDS011;10104;50.732;10.174;2024-02-21T11:22:54;8.73;;;2.97;;
19883;SDS011;10104;50.732;10.174;2024-02-21T11:25:36;6.13;;;3.17;;
19883;SDS011;10104;50.732;10.174;2024-02-21T11:28:16;5.93;;;3.10;;
19883;SDS011;10104;50.732;10.174;2024-02-21T11:31:12;9.40;;;3.10;;
19883;SDS011;10104;50.732;10.174;2024-02-21T11:33:54;6.30;;;3.00;;
19883;SDS011;10104;50.732;10.174;2024-02-21T11:36:34;5.47;;;3.00;;
19883;SDS011;10104;50.732;10.174;2024-02-21T11:39:25;5.27;;;2.40;;
19883;SDS011;10104;50.732;10.174;2024-02-21T11:42:06;6.50;;;2.97;;
19883;SDS011;10104;50.732;10.174;2024-02-21T11:44:47;4.97;;;2.47;;
19883;SDS011;10104;50.732;10.174;2024-02-21T11:47:28;4.80;;;2.47;;
19883;SDS011;10104;50.732;10.174;2024-02-21T11:50:09;5.37;;;2.90;;
19883;SDS011;10104;50.732;10.174;2024-02-21T11:52:51;6.17;;;2.50;;
19883;SDS011;10104;50.732;10.174;2024-02-21T11:55:34;5.63;;;2.77;;
19883;SDS011;10104;50.732;10.174;2024-02-21T11:58:15;7.87;;;2.67;;
19883;SDS011;10104;50.732;10.174;2024-02-21T12:00:56;7.03;;;2.97;;
19883;SDS011;10104;50.732;10.174;2024-02-21T12:03:36;10.47;;;3.03;;
19883;SDS011;10104;50.732;10.174;2024-02-21T12:06:16;6.77;;;2.63;;
19883;SDS011;10104;50.732;10.174;2024-02-21T12:09:01;6.83;;;2.70;;
19883;SDS011;10104;50.732;10.174;2024-02-21T12:11:41;5.53;;;2.33;;
19883;SDS011;10104;50.732;10.174;2024-02-21T12:14:24;6.43;;;2.60;;
19883;SDS011;10104;50.732;10.174;2024-02-21T12:17:04;4.27;;;2.07;;
19883;SDS011;10104;50.732;10.174;2024-02-21T12:19:45;4.67;;;2.10;;
19883;SDS011;10104;50.732;10.174;2024-02-21T12:22:26;6.57;;;2.33;;
19883;SDS011;10104;50.732;10.174;2024-02-21T12:27:58;5.30;;;2.67;;
19883;SDS011;10104;50.732;10.174;2024-02-21T12:30:40;6.27;;;2.10;;
19883;SDS011;10104;50.732;10.174;2024-02-21T12:33:21;5.47;;;2.60;;
19883;SDS011;10104;50.732;10.174;2024-02-21T12:36:01;8.23;;;2.50;;
19883;SDS011;10104;50.732;10.174;2024-02-21T12:38:41;4.87;;;2.33;;
19883;SDS011;10104;50.732;10.174;2024-02-21T12:41:22;5.40;;;2.30;;
19883;SDS011;10104;50.732;10.174;2024-02-21T12:44:05;4.30;;;2.27;;
19883;SDS011;10104;50.732;10.174;2024-02-21T12:46:47;6.77;;;2.23;;
19883;SDS011;10104;50.732;10.174;2024-02-21T12:49:31;7.40;;;2.10;;
19883;SDS011;10104;50.732;10.174;2024-02-21T12:52:12;4.13;;;2.20;;
19883;SDS011;10104;50.732;10.174;2024-02-21T12:54:53;8.17;;;2.30;;
19883;SDS011;10104;50.732;10.174;2024-02-21T12:57:36;6.57;;;2.60;;
19883;SDS011;10104;50.732;10.174;2024-02-21T13:00:17;4.63;;;2.40;;
19883;SDS011;10104;50.732;10.174;2024-02-21T13:02:57;10.27;;;2.20;;
19883;SDS011;10104;50.732;10.174;2024-02-21T13:05:37;4.17;;;1.97;;
19883;SDS011;10104;50.732;10.174;2024-02-21T13:08:18;7.00;;;2.23;;
19883;SDS011;10104;50.732;10.174;2024-02-21T13:11:01;4.97;;;1.97;;
19883;SDS011;10104;50.732;10.174;2024-02-21T13:13:41;6.97;;;2.47;;
19883;SDS011;10104;50.732;10.174;2024-02-21T13:16:21;5.40;;;2.10;;
19883;SDS011;10104;50.732;10.174;2024-02-21T13:19:02;6.97;;;2.57;;
19883;SDS011;10104;50.732;10.174;2024-02-21T13:21:43;7.53;;;2.03;;
19883;SDS011;10104;50.732;10.174;2024-02-21T13:24:23;5.30;;;2.10;;
19883;SDS011;10104;50.732;10.174;2024-02-21T13:27:03;8.17;;;2.90;;
19883;SDS011;10104;50.732;10.174;2024-02-21T13:29:43;4.07;;;2.27;;
19883;SDS011;10104;50.732;10.174;2024-02-21T13:32:25;3.73;;;2.20;;
19883;SDS011;10104;50.732;10.174;2024-02-21T13:35:05;3.80;;;2.00;;
19883;SDS011;10104;50.732;10.174;2024-02-21T13:37:46;9.60;;;1.90;;
19883;SDS011;10104;50.732;10.174;2024-02-21T13:40:26;6.93;;;3.33;;
19883;SDS011;10104;50.732;10.174;2024-02-21T13:43:06;6.10;;;2.23;;
19883;SDS011;10104;50.732;10.174;2024-02-21T13:45:57;10.07;;;3.37;;
19883;SDS011;10104;50.732;10.174;2024-02-21T13:48:42;5.37;;;2.10;;
19883;SDS011;10104;50.732;10.174;2024-02-21T13:51:22;8.07;;;2.43;;
19883;SDS011;10104;50.732;10.174;2024-02-21T13:54:03;4.27;;;2.00;;
19883;SDS011;10104;50.732;10.174;2024-02-21T13:56:44;5.40;;;1.90;;
19883;SDS011;10104;50.732;10.174;2024-02-21T13:59:24;6.13;;;2.20;;
19883;SDS011;10104;50.732;10.174;2024-02-21T14:02:06;6.07;;;2.00;;
19883;SDS011;10104;50.732;10.174;2024-02-21T14:04:49;6.23;;;2.27;;
19883;SDS011;10104;50.732;10.174;2024-02-21T14:07:29;7.63;;;2.77;;
19883;SDS011;10104;50.732;10.174;2024-02-21T14:10:09;6.13;;;2.03;;
19883;SDS011;10104;50.732;10.174;2024-02-21T14:12:50;5.57;;;2.37;;
19883;SDS011;10104;50.732;10.174;2024-02-21T14:15:30;7.73;;;2.37;;
19883;SDS011;10104;50.732;10.174;2024-02-21T14:18:10;2.43;;;1.63;;
19883;SDS011;10104;50.732;10.174;2024-02-21T14:20:50;4.60;;;2.13;;
19883;SDS011;10104;50.732;10.174;2024-02-21T14:23:30;3.13;;;1.50;;
19883;SDS011;10104;50.732;10.174;2024-02-21T14:26:11;4.43;;;1.53;;
19883;SDS011;10104;50.732;10.174;2024-02-21T14:28:52;2.87;;;1.30;;
19883;SDS011;10104;50.732;10.174;2024-02-21T14:31:33;4.67;;;1.33;;
19883;SDS011;10104;50.732;10.174;2024-02-21T14:34:13;4.80;;;1.70;;
19883;SDS011;10104;50.732;10.174;2024-02-21T14:36:53;6.77;;;2.10;;
19883;SDS011;10104;50.732;10.174;2024-02-21T14:39:34;3.90;;;1.67;;
19883;SDS011;10104;50.732;10.174;2024-02-21T14:42:15;3.17;;;1.93;;
19883;SDS011;10104;50.732;10.174;2024-02-21T14:44:55;3.87;;;1.90;;
19883;SDS011;10104;50.732;10.174;2024-02-21T14:47:44;5.27;;;1.80;;
19883;SDS011;10104;50.732;10.174;2024-02-21T14:50:24;4.47;;;1.63;;
19883;SDS011;10104;50.732;10.174;2024-02-21T14:53:04;4.03;;;1.47;;
19883;SDS011;10104;50.732;10.174;2024-02-21T14:55:45;3.17;;;1.63;;
19883;SDS011;10104;50.732;10.174;2024-02-21T14:58:26;3.90;;;1.70;;
19883;SDS011;10104;50.732;10.174;2024-02-21T15:01:07;3.93;;;1.50;;
19883;SDS011;10104;50.732;10.174;2024-02-21T15:03:48;4.23;;;1.70;;
19883;SDS011;10104;50.732;10.174;2024-02-21T15:06:28;3.97;;;1.43;;
19883;SDS011;10104;50.732;10.174;2024-02-21T15:09:08;4.93;;;1.70;;
19883;SDS011;10104;50.732;10.174;2024-02-21T15:11:49;5.73;;;1.90;;
19883;SDS011;10104;50.732;10.174;2024-02-21T15:14:29;6.13;;;1.90;;
19883;SDS011;10104;50.732;10.174;2024-02-21T15:17:10;4.93;;;1.73;;
19883;SDS011;10104;50.732;10.174;2024-02-21T15:19:52;3.77;;;1.90;;
19883;SDS011;10104;50.732;10.174;2024-02-21T15:22:35;4.50;;;1.77;;
19883;SDS011;10104;50.732;10.174;2024-02-21T15:25:15;4.23;;;1.60;;
19883;SDS011;10104;50.732;10.174;2024-02-21T15:27:57;2.60;;;1.50;;
19883;SDS011;10104;50.732;10.174;2024-02-21T15:30:39;3.87;;;1.60;;
19883;SDS011;10104;50.732;10.174;2024-02-21T15:33:20;5.23;;;1.50;;
19883;SDS011;10104;50.732;10.174;2024-02-21T15:36:00;4.63;;;1.33;;
19883;SDS011;10104;50.732;10.174;2024-02-21T15:38:42;3.60;;;1.60;;
19883;SDS011;10104;50.732;10.174;2024-02-21T15:41:22;4.30;;;1.80;;
19883;SDS011;10104;50.732;10.174;2024-02-21T15:44:02;3.43;;;1.63;;
19883;SDS011;10104;50.732;10.174;2024-02-21T15:46:44;4.70;;;1.40;;
19883;SDS011;10104;50.732;10.174;2024-02-21T15:49:24;3.77;;;2.00;;
19883;SDS011;10104;50.732;10.174;2024-02-21T15:52:05;5.13;;;1.60;;